sensor_id;sensor_type;location;lat;lon;timestamp;temperature;humidity
20915;DHT22;10617;52.032;5.298;2023-07-20T00:01:42;18.20;99.90
20915;DHT22;10617;52.032;5.298;2023-07-20T00:05:46;18.20;99.90
20915;DHT22;10617;52.032;5.298;2023-07-20T00:09:47;18.20;99.90
20915;DHT22;10617;52.032;5.298;2023-07-20T00:13:49;18.10;99.90
20915;DHT22;10617;52.032;5.298;2023-07-20T00:17:51;18.10;99.90
20915;DHT22;10617;52.032;5.298;2023-07-20T00:21:53;18.10;99.90
20915;DHT22;10617;52.032;5.298;2023-07-20T00:25:55;18.10;99.90
20915;DHT22;10617;52.032;5.298;2023-07-20T00:29:57;18.00;99.90
20915;DHT22;10617;52.032;5.298;2023-07-20T00:33:58;17.90;99.90
20915;DHT22;10617;52.032;5.298;2023-07-20T00:38:00;17.90;99.90
20915;DHT22;10617;52.032;5.298;2023-07-20T00:42:01;17.80;99.90
20915;DHT22;10617;52.032;5.298;2023-07-20T00:46:03;17.80;99.90
20915;DHT22;10617;52.032;5.298;2023-07-20T00:50:05;17.80;99.90
20915;DHT22;10617;52.032;5.298;2023-07-20T00:54:07;17.70;99.90
20915;DHT22;10617;52.032;5.298;2023-07-20T00:58:09;17.70;99.90
20915;DHT22;10617;52.032;5.298;2023-07-20T01:02:11;17.60;99.90
20915;DHT22;10617;52.032;5.298;2023-07-20T01:06:36;17.60;99.90
20915;DHT22;10617;52.032;5.298;2023-07-20T01:10:46;17.50;99.90
20915;DHT22;10617;52.032;5.298;2023-07-20T01:14:51;17.50;99.90
20915;DHT22;10617;52.032;5.298;2023-07-20T01:18:52;17.50;99.90
20915;DHT22;10617;52.032;5.298;2023-07-20T01:31:20;17.40;99.90
20915;DHT22;10617;52.032;5.298;2023-07-20T01:35:23;17.30;99.90
20915;DHT22;10617;52.032;5.298;2023-07-20T01:39:27;17.20;99.90
20915;DHT22;10617;52.032;5.298;2023-07-20T01:43:29;17.10;99.90
20915;DHT22;10617;52.032;5.298;2023-07-20T01:47:30;17.10;99.90
20915;DHT22;10617;52.032;5.298;2023-07-20T01:51:32;16.90;99.90
20915;DHT22;10617;52.032;5.298;2023-07-20T01:55:34;16.80;99.90
20915;DHT22;10617;52.032;5.298;2023-07-20T01:59:35;16.70;99.90
20915;DHT22;10617;52.032;5.298;2023-07-20T02:03:37;16.60;99.90
20915;DHT22;10617;52.032;5.298;2023-07-20T02:07:39;16.60;99.90
20915;DHT22;10617;52.032;5.298;2023-07-20T02:11:41;16.60;99.90
20915;DHT22;10617;52.032;5.298;2023-07-20T02:15:42;16.50;99.90
20915;DHT22;10617;52.032;5.298;2023-07-20T02:19:44;16.40;99.90
20915;DHT22;10617;52.032;5.298;2023-07-20T02:23:46;16.30;99.90
20915;DHT22;10617;52.032;5.298;2023-07-20T02:27:48;16.20;99.90
20915;DHT22;10617;52.032;5.298;2023-07-20T02:31:50;16.10;99.90
20915;DHT22;10617;52.032;5.298;2023-07-20T02:35:51;16.10;99.90
20915;DHT22;10617;52.032;5.298;2023-07-20T02:39:53;16.00;99.90
20915;DHT22;10617;52.032;5.298;2023-07-20T02:43:55;16.00;99.90
20915;DHT22;10617;52.032;5.298;2023-07-20T02:47:58;16.00;99.90
20915;DHT22;10617;52.032;5.298;2023-07-20T02:51:59;15.90;99.90
20915;DHT22;10617;52.032;5.298;2023-07-20T02:56:01;15.80;99.90
20915;DHT22;10617;52.032;5.298;2023-07-20T03:00:03;15.80;99.90
20915;DHT22;10617;52.032;5.298;2023-07-20T03:04:07;15.80;99.90
20915;DHT22;10617;52.032;5.298;2023-07-20T03:08:11;15.70;99.90
20915;DHT22;10617;52.032;5.298;2023-07-20T03:12:13;15.70;99.90
20915;DHT22;10617;52.032;5.298;2023-07-20T03:16:15;15.60;99.90
20915;DHT22;10617;52.032;5.298;2023-07-20T03:20:17;15.60;99.90
20915;DHT22;10617;52.032;5.298;2023-07-20T03:24:19;15.60;99.90
20915;DHT22;10617;52.032;5.298;2023-07-20T03:28:20;15.50;99.90
20915;DHT22;10617;52.032;5.298;2023-07-20T03:32:22;15.40;99.90
20915;DHT22;10617;52.032;5.298;2023-07-20T03:36:24;15.40;99.90
20915;DHT22;10617;52.032;5.298;2023-07-20T03:40:25;15.40;99.90
20915;DHT22;10617;52.032;5.298;2023-07-20T03:44:27;15.40;99.90
20915;DHT22;10617;52.032;5.298;2023-07-20T03:48:29;15.30;99.90
20915;DHT22;10617;52.032;5.298;2023-07-20T03:52:31;15.20;99.90
20915;DHT22;10617;52.032;5.298;2023-07-20T03:56:32;15.20;99.90
20915;DHT22;10617;52.032;5.298;2023-07-20T04:00:36;15.10;99.90
20915;DHT22;10617;52.032;5.298;2023-07-20T04:04:38;15.10;99.90
20915;DHT22;10617;52.032;5.298;2023-07-20T04:08:40;15.10;99.90
20915;DHT22;10617;52.032;5.298;2023-07-20T04:12:41;15.10;99.90
20915;DHT22;10617;52.032;5.298;2023-07-20T04:16:45;15.10;99.90
20915;DHT22;10617;52.032;5.298;2023-07-20T04:20:47;15.00;99.90
20915;DHT22;10617;52.032;5.298;2023-07-20T04:24:49;15.10;99.90
20915;DHT22;10617;52.032;5.298;2023-07-20T04:38:51;15.10;99.90
20915;DHT22;10617;52.032;5.298;2023-07-20T04:42:53;15.20;99.90
20915;DHT22;10617;52.032;5.298;2023-07-20T04:46:54;15.20;99.90
20915;DHT22;10617;52.032;5.298;2023-07-20T04:50:56;15.20;99.90
20915;DHT22;10617;52.032;5.298;2023-07-20T04:54:58;15.30;99.90
20915;DHT22;10617;52.032;5.298;2023-07-20T04:58:59;15.30;99.90
20915;DHT22;10617;52.032;5.298;2023-07-20T05:03:01;15.40;99.90
20915;DHT22;10617;52.032;5.298;2023-07-20T05:07:03;15.50;99.90
20915;DHT22;10617;52.032;5.298;2023-07-20T05:11:05;15.50;99.90
20915;DHT22;10617;52.032;5.298;2023-07-20T05:15:07;15.60;99.90
20915;DHT22;10617;52.032;5.298;2023-07-20T05:19:09;15.60;99.90
20915;DHT22;10617;52.032;5.298;2023-07-20T05:23:10;15.70;99.90
20915;DHT22;10617;52.032;5.298;2023-07-20T05:27:12;15.70;99.90
20915;DHT22;10617;52.032;5.298;2023-07-20T05:31:14;15.80;99.90
20915;DHT22;10617;52.032;5.298;2023-07-20T05:35:15;15.90;99.90
20915;DHT22;10617;52.032;5.298;2023-07-20T05:49:24;16.30;99.90
20915;DHT22;10617;52.032;5.298;2023-07-20T05:53:26;16.40;99.90
20915;DHT22;10617;52.032;5.298;2023-07-20T05:57:28;16.50;99.90
20915;DHT22;10617;52.032;5.298;2023-07-20T06:01:30;16.60;99.90
20915;DHT22;10617;52.032;5.298;2023-07-20T06:05:31;16.70;99.90
20915;DHT22;10617;52.032;5.298;2023-07-20T06:09:33;16.80;99.90
20915;DHT22;10617;52.032;5.298;2023-07-20T06:13:35;16.90;99.90
20915;DHT22;10617;52.032;5.298;2023-07-20T06:17:36;17.00;99.90
20915;DHT22;10617;52.032;5.298;2023-07-20T06:21:40;17.10;99.90
20915;DHT22;10617;52.032;5.298;2023-07-20T06:25:42;17.20;99.90
20915;DHT22;10617;52.032;5.298;2023-07-20T06:29:44;17.30;99.90
20915;DHT22;10617;52.032;5.298;2023-07-20T06:33:46;17.50;99.90
20915;DHT22;10617;52.032;5.298;2023-07-20T06:37:47;17.60;99.90
20915;DHT22;10617;52.032;5.298;2023-07-20T06:41:49;17.70;99.90
20915;DHT22;10617;52.032;5.298;2023-07-20T06:45:52;17.70;99.90
20915;DHT22;10617;52.032;5.298;2023-07-20T06:49:55;17.80;99.90
20915;DHT22;10617;52.032;5.298;2023-07-20T06:53:56;17.90;99.90
20915;DHT22;10617;52.032;5.298;2023-07-20T06:57:58;17.90;99.90
20915;DHT22;10617;52.032;5.298;2023-07-20T07:02:00;17.90;99.90
20915;DHT22;10617;52.032;5.298;2023-07-20T07:06:01;18.00;99.90
20915;DHT22;10617;52.032;5.298;2023-07-20T07:10:03;18.10;99.90
20915;DHT22;10617;52.032;5.298;2023-07-20T07:14:06;18.30;99.90
20915;DHT22;10617;52.032;5.298;2023-07-20T07:18:09;18.40;99.90
20915;DHT22;10617;52.032;5.298;2023-07-20T07:22:10;18.50;99.90
20915;DHT22;10617;52.032;5.298;2023-07-20T07:26:13;18.40;99.90
20915;DHT22;10617;52.032;5.298;2023-07-20T07:30:14;18.30;99.90
20915;DHT22;10617;52.032;5.298;2023-07-20T07:34:16;18.30;99.90
20915;DHT22;10617;52.032;5.298;2023-07-20T07:38:18;18.30;99.90
20915;DHT22;10617;52.032;5.298;2023-07-20T07:42:25;18.40;99.90
20915;DHT22;10617;52.032;5.298;2023-07-20T07:46:26;18.50;99.90
20915;DHT22;10617;52.032;5.298;2023-07-20T07:50:28;18.60;99.90
20915;DHT22;10617;52.032;5.298;2023-07-20T07:54:30;18.70;99.90
20915;DHT22;10617;52.032;5.298;2023-07-20T07:58:31;18.60;99.90
20915;DHT22;10617;52.032;5.298;2023-07-20T08:02:33;18.50;99.90
20915;DHT22;10617;52.032;5.298;2023-07-20T08:06:35;18.40;99.90
20915;DHT22;10617;52.032;5.298;2023-07-20T08:10:36;18.30;99.90
20915;DHT22;10617;52.032;5.298;2023-07-20T08:14:38;18.50;99.90
20915;DHT22;10617;52.032;5.298;2023-07-20T08:18:40;18.50;99.90
20915;DHT22;10617;52.032;5.298;2023-07-20T08:27:44;18.50;99.90
20915;DHT22;10617;52.032;5.298;2023-07-20T08:31:48;18.40;99.90
20915;DHT22;10617;52.032;5.298;2023-07-20T08:35:50;18.30;99.90
20915;DHT22;10617;52.032;5.298;2023-07-20T08:39:51;18.20;99.90
20915;DHT22;10617;52.032;5.298;2023-07-20T08:43:53;18.20;99.90
20915;DHT22;10617;52.032;5.298;2023-07-20T08:47:56;18.30;99.90
20915;DHT22;10617;52.032;5.298;2023-07-20T08:51:58;18.40;99.90
20915;DHT22;10617;52.032;5.298;2023-07-20T08:55:59;18.50;99.90
20915;DHT22;10617;52.032;5.298;2023-07-20T09:00:02;18.60;99.90
20915;DHT22;10617;52.032;5.298;2023-07-20T09:04:06;18.70;99.90
20915;DHT22;10617;52.032;5.298;2023-07-20T09:08:08;18.80;99.90
20915;DHT22;10617;52.032;5.298;2023-07-20T09:12:13;18.90;99.90
20915;DHT22;10617;52.032;5.298;2023-07-20T09:16:15;18.90;99.90
20915;DHT22;10617;52.032;5.298;2023-07-20T09:20:17;19.00;99.90
20915;DHT22;10617;52.032;5.298;2023-07-20T09:24:22;19.00;99.90
20915;DHT22;10617;52.032;5.298;2023-07-20T09:28:24;19.00;99.90
20915;DHT22;10617;52.032;5.298;2023-07-20T09:32:26;19.00;99.90
20915;DHT22;10617;52.032;5.298;2023-07-20T09:36:28;19.00;99.90
20915;DHT22;10617;52.032;5.298;2023-07-20T09:40:36;19.10;99.90
20915;DHT22;10617;52.032;5.298;2023-07-20T09:44:44;19.20;99.90
20915;DHT22;10617;52.032;5.298;2023-07-20T09:48:52;19.30;99.90
20915;DHT22;10617;52.032;5.298;2023-07-20T09:52:58;19.40;99.90
20915;DHT22;10617;52.032;5.298;2023-07-20T09:57:03;19.40;99.90
20915;DHT22;10617;52.032;5.298;2023-07-20T10:01:05;19.40;99.90
20915;DHT22;10617;52.032;5.298;2023-07-20T10:05:08;19.50;99.90
20915;DHT22;10617;52.032;5.298;2023-07-20T10:09:12;19.50;99.90
20915;DHT22;10617;52.032;5.298;2023-07-20T10:13:17;19.60;99.90
20915;DHT22;10617;52.032;5.298;2023-07-20T10:17:19;19.70;99.90
20915;DHT22;10617;52.032;5.298;2023-07-20T10:21:22;19.70;99.90
20915;DHT22;10617;52.032;5.298;2023-07-20T10:25:29;19.60;99.90
20915;DHT22;10617;52.032;5.298;2023-07-20T10:29:31;19.60;99.90
20915;DHT22;10617;52.032;5.298;2023-07-20T10:33:33;19.50;99.90
20915;DHT22;10617;52.032;5.298;2023-07-20T10:37:51;19.60;99.90
20915;DHT22;10617;52.032;5.298;2023-07-20T10:46:33;19.80;99.90
20915;DHT22;10617;52.032;5.298;2023-07-20T10:50:35;20.00;99.90
20915;DHT22;10617;52.032;5.298;2023-07-20T10:54:46;20.10;99.90
20915;DHT22;10617;52.032;5.298;2023-07-20T10:58:48;20.10;99.90
20915;DHT22;10617;52.032;5.298;2023-07-20T11:12:34;20.20;99.90
20915;DHT22;10617;52.032;5.298;2023-07-20T11:16:39;20.30;99.90
20915;DHT22;10617;52.032;5.298;2023-07-20T11:20:41;20.30;99.90
20915;DHT22;10617;52.032;5.298;2023-07-20T11:24:43;20.40;99.90
20915;DHT22;10617;52.032;5.298;2023-07-20T11:28:49;20.40;99.90
20915;DHT22;10617;52.032;5.298;2023-07-20T11:32:50;20.40;99.90
20915;DHT22;10617;52.032;5.298;2023-07-20T11:36:52;20.40;99.90
20915;DHT22;10617;52.032;5.298;2023-07-20T11:40:57;20.40;99.90
20915;DHT22;10617;52.032;5.298;2023-07-20T11:44:58;20.50;99.90
20915;DHT22;10617;52.032;5.298;2023-07-20T11:49:02;20.50;99.90
20915;DHT22;10617;52.032;5.298;2023-07-20T11:53:04;20.50;99.90
20915;DHT22;10617;52.032;5.298;2023-07-20T11:57:05;20.70;99.90
20915;DHT22;10617;52.032;5.298;2023-07-20T12:01:08;20.70;99.90
20915;DHT22;10617;52.032;5.298;2023-07-20T12:05:10;20.80;99.90
20915;DHT22;10617;52.032;5.298;2023-07-20T12:09:13;20.90;99.90
20915;DHT22;10617;52.032;5.298;2023-07-20T12:13:16;21.00;99.90
20915;DHT22;10617;52.032;5.298;2023-07-20T12:17:18;21.00;99.90
20915;DHT22;10617;52.032;5.298;2023-07-20T12:21:20;21.10;99.90
20915;DHT22;10617;52.032;5.298;2023-07-20T12:25:22;21.10;99.90
20915;DHT22;10617;52.032;5.298;2023-07-20T12:29:23;21.20;99.90
20915;DHT22;10617;52.032;5.298;2023-07-20T12:33:25;21.20;99.90
20915;DHT22;10617;52.032;5.298;2023-07-20T12:37:27;21.30;99.90
20915;DHT22;10617;52.032;5.298;2023-07-20T12:41:28;21.30;99.90
20915;DHT22;10617;52.032;5.298;2023-07-20T12:45:30;21.40;99.90
20915;DHT22;10617;52.032;5.298;2023-07-20T12:49:32;21.30;99.90
20915;DHT22;10617;52.032;5.298;2023-07-20T12:53:34;21.30;99.90
20915;DHT22;10617;52.032;5.298;2023-07-20T12:57:35;21.20;99.90
20915;DHT22;10617;52.032;5.298;2023-07-20T13:01:37;21.10;99.90
20915;DHT22;10617;52.032;5.298;2023-07-20T13:05:39;21.10;99.90
20915;DHT22;10617;52.032;5.298;2023-07-20T13:09:44;21.10;99.90
20915;DHT22;10617;52.032;5.298;2023-07-20T13:13:46;21.00;99.90
20915;DHT22;10617;52.032;5.298;2023-07-20T13:17:47;21.00;99.90
20915;DHT22;10617;52.032;5.298;2023-07-20T13:21:49;21.00;99.90
20915;DHT22;10617;52.032;5.298;2023-07-20T13:25:51;20.90;99.90
20915;DHT22;10617;52.032;5.298;2023-07-20T13:29:53;20.90;99.90
20915;DHT22;10617;52.032;5.298;2023-07-20T13:33:54;20.90;99.90
20915;DHT22;10617;52.032;5.298;2023-07-20T13:38:00;20.90;99.90
20915;DHT22;10617;52.032;5.298;2023-07-20T13:42:02;20.90;99.90
20915;DHT22;10617;52.032;5.298;2023-07-20T13:46:06;21.10;99.90
20915;DHT22;10617;52.032;5.298;2023-07-20T13:50:08;21.20;99.90
20915;DHT22;10617;52.032;5.298;2023-07-20T13:54:25;21.30;99.90
20915;DHT22;10617;52.032;5.298;2023-07-20T13:58:28;21.30;99.90
20915;DHT22;10617;52.032;5.298;2023-07-20T14:02:32;21.30;99.90
20915;DHT22;10617;52.032;5.298;2023-07-20T14:06:36;21.20;99.90
20915;DHT22;10617;52.032;5.298;2023-07-20T14:10:38;21.20;99.90
20915;DHT22;10617;52.032;5.298;2023-07-20T14:14:43;21.30;99.90
20915;DHT22;10617;52.032;5.298;2023-07-20T14:18:45;21.40;99.90
20915;DHT22;10617;52.032;5.298;2023-07-20T14:22:50;21.50;99.90
20915;DHT22;10617;52.032;5.298;2023-07-20T14:26:52;21.60;99.90
20915;DHT22;10617;52.032;5.298;2023-07-20T14:30:55;21.60;99.90
20915;DHT22;10617;52.032;5.298;2023-07-20T14:34:57;21.50;99.90
20915;DHT22;10617;52.032;5.298;2023-07-20T14:38:59;21.50;99.90
20915;DHT22;10617;52.032;5.298;2023-07-20T14:43:00;21.50;99.90
20915;DHT22;10617;52.032;5.298;2023-07-20T14:47:02;21.70;99.90
20915;DHT22;10617;52.032;5.298;2023-07-20T14:51:16;21.90;99.90
20915;DHT22;10617;52.032;5.298;2023-07-20T14:55:18;22.10;99.90
20915;DHT22;10617;52.032;5.298;2023-07-20T14:59:20;22.00;99.90
20915;DHT22;10617;52.032;5.298;2023-07-20T15:03:21;21.90;99.90
20915;DHT22;10617;52.032;5.298;2023-07-20T15:07:23;21.80;99.90
20915;DHT22;10617;52.032;5.298;2023-07-20T15:11:25;21.80;99.90
20915;DHT22;10617;52.032;5.298;2023-07-20T15:15:26;21.80;99.90
20915;DHT22;10617;52.032;5.298;2023-07-20T15:19:28;21.80;99.90
20915;DHT22;10617;52.032;5.298;2023-07-20T15:23:30;21.80;99.90
20915;DHT22;10617;52.032;5.298;2023-07-20T15:27:31;21.80;99.90
20915;DHT22;10617;52.032;5.298;2023-07-20T15:31:33;21.80;99.90
20915;DHT22;10617;52.032;5.298;2023-07-20T15:35:37;21.80;99.90
20915;DHT22;10617;52.032;5.298;2023-07-20T15:39:39;21.80;99.90
20915;DHT22;10617;52.032;5.298;2023-07-20T15:43:42;21.80;99.90
20915;DHT22;10617;52.032;5.298;2023-07-20T15:47:44;21.80;99.90
20915;DHT22;10617;52.032;5.298;2023-07-20T15:51:46;21.80;99.90
20915;DHT22;10617;52.032;5.298;2023-07-20T15:55:52;21.70;99.90
20915;DHT22;10617;52.032;5.298;2023-07-20T15:59:55;21.60;99.90
20915;DHT22;10617;52.032;5.298;2023-07-20T16:03:57;21.50;99.90
20915;DHT22;10617;52.032;5.298;2023-07-20T16:07:58;21.50;99.90
20915;DHT22;10617;52.032;5.298;2023-07-20T16:12:00;21.50;99.90
20915;DHT22;10617;52.032;5.298;2023-07-20T16:16:02;21.50;99.90
20915;DHT22;10617;52.032;5.298;2023-07-20T16:20:04;21.50;99.90
20915;DHT22;10617;52.032;5.298;2023-07-20T16:24:08;21.50;99.90
20915;DHT22;10617;52.032;5.298;2023-07-20T16:28:10;21.40;99.90
20915;DHT22;10617;52.032;5.298;2023-07-20T16:32:12;21.40;99.90
20915;DHT22;10617;52.032;5.298;2023-07-20T16:36:14;21.40;99.90
20915;DHT22;10617;52.032;5.298;2023-07-20T16:40:16;21.30;99.90
20915;DHT22;10617;52.032;5.298;2023-07-20T16:44:21;21.30;99.90
20915;DHT22;10617;52.032;5.298;2023-07-20T16:48:22;21.30;99.90
20915;DHT22;10617;52.032;5.298;2023-07-20T16:52:27;21.30;99.90
20915;DHT22;10617;52.032;5.298;2023-07-20T16:56:29;21.30;99.90
20915;DHT22;10617;52.032;5.298;2023-07-20T17:00:30;21.30;99.90
20915;DHT22;10617;52.032;5.298;2023-07-20T17:04:32;21.20;99.90
20915;DHT22;10617;52.032;5.298;2023-07-20T17:08:34;21.10;99.90
20915;DHT22;10617;52.032;5.298;2023-07-20T17:12:36;21.10;99.90
20915;DHT22;10617;52.032;5.298;2023-07-20T17:16:38;21.10;99.90
20915;DHT22;10617;52.032;5.298;2023-07-20T17:25:46;21.10;99.90
20915;DHT22;10617;52.032;5.298;2023-07-20T17:29:51;21.10;99.90
20915;DHT22;10617;52.032;5.298;2023-07-20T17:33:52;21.00;99.90
20915;DHT22;10617;52.032;5.298;2023-07-20T17:37:54;21.00;99.90
20915;DHT22;10617;52.032;5.298;2023-07-20T17:41:59;21.00;99.90
20915;DHT22;10617;52.032;5.298;2023-07-20T17:46:00;21.00;99.90
20915;DHT22;10617;52.032;5.298;2023-07-20T17:50:05;21.00;99.90
20915;DHT22;10617;52.032;5.298;2023-07-20T17:54:07;21.00;99.90
20915;DHT22;10617;52.032;5.298;2023-07-20T17:58:10;21.00;99.90
20915;DHT22;10617;52.032;5.298;2023-07-20T18:02:12;20.90;99.90
20915;DHT22;10617;52.032;5.298;2023-07-20T18:06:14;20.90;99.90
20915;DHT22;10617;52.032;5.298;2023-07-20T18:10:16;20.90;99.90
20915;DHT22;10617;52.032;5.298;2023-07-20T18:14:17;20.90;99.90
20915;DHT22;10617;52.032;5.298;2023-07-20T18:18:19;20.90;99.90
20915;DHT22;10617;52.032;5.298;2023-07-20T18:22:21;20.90;99.90
20915;DHT22;10617;52.032;5.298;2023-07-20T18:26:22;20.80;99.90
20915;DHT22;10617;52.032;5.298;2023-07-20T18:30:24;20.80;99.90
20915;DHT22;10617;52.032;5.298;2023-07-20T18:34:28;20.80;99.90
20915;DHT22;10617;52.032;5.298;2023-07-20T18:38:30;20.80;99.90
20915;DHT22;10617;52.032;5.298;2023-07-20T18:42:34;20.80;99.90
20915;DHT22;10617;52.032;5.298;2023-07-20T18:46:36;20.80;99.90
20915;DHT22;10617;52.032;5.298;2023-07-20T18:50:37;20.80;99.90
20915;DHT22;10617;52.032;5.298;2023-07-20T18:54:39;20.80;99.90
20915;DHT22;10617;52.032;5.298;2023-07-20T18:58:41;20.80;99.90
20915;DHT22;10617;52.032;5.298;2023-07-20T19:02:42;20.80;99.90
20915;DHT22;10617;52.032;5.298;2023-07-20T19:06:44;20.80;99.90
20915;DHT22;10617;52.032;5.298;2023-07-20T19:10:46;20.80;99.90
20915;DHT22;10617;52.032;5.298;2023-07-20T19:14:50;20.80;99.90
20915;DHT22;10617;52.032;5.298;2023-07-20T19:18:55;20.80;99.90
20915;DHT22;10617;52.032;5.298;2023-07-20T19:22:57;20.80;99.90
20915;DHT22;10617;52.032;5.298;2023-07-20T19:26:59;20.70;99.90
20915;DHT22;10617;52.032;5.298;2023-07-20T19:31:01;20.70;99.90
20915;DHT22;10617;52.032;5.298;2023-07-20T19:35:03;20.70;99.90
20915;DHT22;10617;52.032;5.298;2023-07-20T19:39:05;20.70;99.90
20915;DHT22;10617;52.032;5.298;2023-07-20T19:43:07;20.60;99.90
20915;DHT22;10617;52.032;5.298;2023-07-20T19:47:13;20.40;99.90
20915;DHT22;10617;52.032;5.298;2023-07-20T19:51:15;20.40;99.90
20915;DHT22;10617;52.032;5.298;2023-07-20T19:55:16;20.20;99.90
20915;DHT22;10617;52.032;5.298;2023-07-20T19:59:18;20.10;99.90
20915;DHT22;10617;52.032;5.298;2023-07-20T20:03:20;20.00;99.90
20915;DHT22;10617;52.032;5.298;2023-07-20T20:07:25;19.90;99.90
20915;DHT22;10617;52.032;5.298;2023-07-20T20:11:27;19.80;99.90
20915;DHT22;10617;52.032;5.298;2023-07-20T20:15:29;19.70;99.90
20915;DHT22;10617;52.032;5.298;2023-07-20T20:19:31;19.60;99.90
20915;DHT22;10617;52.032;5.298;2023-07-20T20:23:32;19.50;99.90
20915;DHT22;10617;52.032;5.298;2023-07-20T20:27:34;19.40;99.90
20915;DHT22;10617;52.032;5.298;2023-07-20T20:31:36;19.30;99.90
20915;DHT22;10617;52.032;5.298;2023-07-20T20:35:38;19.20;99.90
20915;DHT22;10617;52.032;5.298;2023-07-20T20:39:42;19.10;99.90
20915;DHT22;10617;52.032;5.298;2023-07-20T20:43:44;19.10;99.90
20915;DHT22;10617;52.032;5.298;2023-07-20T20:47:45;19.00;99.90
20915;DHT22;10617;52.032;5.298;2023-07-20T20:51:47;18.90;99.90
20915;DHT22;10617;52.032;5.298;2023-07-20T20:55:49;18.90;99.90
20915;DHT22;10617;52.032;5.298;2023-07-20T20:59:50;18.80;99.90
20915;DHT22;10617;52.032;5.298;2023-07-20T21:03:52;18.60;99.90
20915;DHT22;10617;52.032;5.298;2023-07-20T21:07:54;18.50;99.90
20915;DHT22;10617;52.032;5.298;2023-07-20T21:11:59;18.40;99.90
20915;DHT22;10617;52.032;5.298;2023-07-20T21:16:00;18.40;99.90
20915;DHT22;10617;52.032;5.298;2023-07-20T21:20:03;18.30;99.90
20915;DHT22;10617;52.032;5.298;2023-07-20T21:24:05;18.40;99.90
20915;DHT22;10617;52.032;5.298;2023-07-20T21:28:06;18.30;99.90
20915;DHT22;10617;52.032;5.298;2023-07-20T21:32:08;18.40;99.90
20915;DHT22;10617;52.032;5.298;2023-07-20T21:36:10;18.30;99.90
20915;DHT22;10617;52.032;5.298;2023-07-20T21:40:12;18.30;99.90
20915;DHT22;10617;52.032;5.298;2023-07-20T21:44:13;18.30;99.90
20915;DHT22;10617;52.032;5.298;2023-07-20T21:48:15;18.30;99.90
20915;DHT22;10617;52.032;5.298;2023-07-20T21:52:17;18.30;99.90
20915;DHT22;10617;52.032;5.298;2023-07-20T21:56:18;18.30;99.90
20915;DHT22;10617;52.032;5.298;2023-07-20T22:00:20;18.30;99.90
20915;DHT22;10617;52.032;5.298;2023-07-20T22:04:25;18.20;99.90
20915;DHT22;10617;52.032;5.298;2023-07-20T22:08:26;18.20;99.90
20915;DHT22;10617;52.032;5.298;2023-07-20T22:12:28;18.10;99.90
20915;DHT22;10617;52.032;5.298;2023-07-20T22:16:30;18.10;99.90
20915;DHT22;10617;52.032;5.298;2023-07-20T22:20:33;18.10;99.90
20915;DHT22;10617;52.032;5.298;2023-07-20T22:24:35;18.10;99.90
20915;DHT22;10617;52.032;5.298;2023-07-20T22:28:37;18.00;99.90
20915;DHT22;10617;52.032;5.298;2023-07-20T22:32:40;18.00;99.90
20915;DHT22;10617;52.032;5.298;2023-07-20T22:36:43;18.00;99.90
20915;DHT22;10617;52.032;5.298;2023-07-20T22:40:44;17.90;99.90
20915;DHT22;10617;52.032;5.298;2023-07-20T22:44:46;17.90;99.90
20915;DHT22;10617;52.032;5.298;2023-07-20T22:48:48;17.90;99.90
20915;DHT22;10617;52.032;5.298;2023-07-20T22:52:50;17.80;99.90
20915;DHT22;10617;52.032;5.298;2023-07-20T22:56:52;17.80;99.90
20915;DHT22;10617;52.032;5.298;2023-07-20T23:00:53;17.80;99.90
20915;DHT22;10617;52.032;5.298;2023-07-20T23:04:55;17.80;99.90
20915;DHT22;10617;52.032;5.298;2023-07-20T23:08:57;17.80;99.90
20915;DHT22;10617;52.032;5.298;2023-07-20T23:23:08;17.80;99.90
20915;DHT22;10617;52.032;5.298;2023-07-20T23:27:10;17.70;99.90
20915;DHT22;10617;52.032;5.298;2023-07-20T23:31:11;17.70;99.90
20915;DHT22;10617;52.032;5.298;2023-07-20T23:35:13;17.70;99.90
20915;DHT22;10617;52.032;5.298;2023-07-20T23:39:15;17.60;99.90
20915;DHT22;10617;52.032;5.298;2023-07-20T23:43:17;17.60;99.90
20915;DHT22;10617;52.032;5.298;2023-07-20T23:47:18;17.50;99.90
20915;DHT22;10617;52.032;5.298;2023-07-20T23:51:20;17.50;99.90
20915;DHT22;10617;52.032;5.298;2023-07-20T23:55:22;17.50;99.90
20915;DHT22;10617;52.032;5.298;2023-07-20T23:59:27;17.50;99.90
